Terminal Aerodrome Forecast
Issued by NWS Medford, OR

Home | Current Version | Previous Version | Text Only | Print | Product List | Glossary On
Versions: 1 2 3 4 5 6 7 8 9 10 11 12 13 14
000
FTUS46 KMFR 061131
TAFMFR
TAF
KMFR 061131Z 0612/0712 18006KT P6SM BKN250
     FM062100 31012KT P6SM SCT070 BKN250
     FM070400 VRB03KT P6SM BKN250=

USA.gov is the U.S. government's official web portal to all federal, state and local government web resources and services.